sensor_id;sensor_type;location;lat;lon;timestamp;temperature;humidity
65231;DHT22;51813;40.666;16.602;2024-01-15T00:01:34;15.00;53.90
65231;DHT22;51813;40.666;16.602;2024-01-15T00:04:00;15.00;53.70
65231;DHT22;51813;40.666;16.602;2024-01-15T00:06:26;15.00;53.70
65231;DHT22;51813;40.666;16.602;2024-01-15T00:08:53;15.00;53.70
65231;DHT22;51813;40.666;16.602;2024-01-15T00:11:19;15.00;53.70
65231;DHT22;51813;40.666;16.602;2024-01-15T00:13:45;15.00;53.70
65231;DHT22;51813;40.666;16.602;2024-01-15T00:16:10;15.00;53.80
65231;DHT22;51813;40.666;16.602;2024-01-15T00:18:37;15.00;53.90
65231;DHT22;51813;40.666;16.602;2024-01-15T00:21:03;15.00;53.80
65231;DHT22;51813;40.666;16.602;2024-01-15T00:23:29;15.00;53.80
65231;DHT22;51813;40.666;16.602;2024-01-15T00:25:54;15.00;53.50
65231;DHT22;51813;40.666;16.602;2024-01-15T00:28:20;15.00;53.50
65231;DHT22;51813;40.666;16.602;2024-01-15T00:30:46;15.00;53.70
65231;DHT22;51813;40.666;16.602;2024-01-15T00:33:11;15.00;53.90
65231;DHT22;51813;40.666;16.602;2024-01-15T00:35:37;15.00;54.00
65231;DHT22;51813;40.666;16.602;2024-01-15T00:38:03;15.00;53.90
65231;DHT22;51813;40.666;16.602;2024-01-15T00:40:29;15.00;54.00
65231;DHT22;51813;40.666;16.602;2024-01-15T00:42:54;15.00;54.10
65231;DHT22;51813;40.666;16.602;2024-01-15T00:45:20;15.00;54.00
65231;DHT22;51813;40.666;16.602;2024-01-15T00:47:46;15.00;53.90
65231;DHT22;51813;40.666;16.602;2024-01-15T00:50:12;15.00;53.90
65231;DHT22;51813;40.666;16.602;2024-01-15T00:52:37;15.00;53.90
65231;DHT22;51813;40.666;16.602;2024-01-15T00:55:03;15.00;54.10
65231;DHT22;51813;40.666;16.602;2024-01-15T00:57:29;15.00;53.90
65231;DHT22;51813;40.666;16.602;2024-01-15T00:59:55;15.00;54.10
65231;DHT22;51813;40.666;16.602;2024-01-15T01:02:21;15.00;53.90
65231;DHT22;51813;40.666;16.602;2024-01-15T01:04:46;15.00;54.00
65231;DHT22;51813;40.666;16.602;2024-01-15T01:07:12;15.00;53.90
65231;DHT22;51813;40.666;16.602;2024-01-15T01:09:38;15.10;53.80
65231;DHT22;51813;40.666;16.602;2024-01-15T01:12:04;15.10;54.00
65231;DHT22;51813;40.666;16.602;2024-01-15T01:14:29;15.00;54.10
65231;DHT22;51813;40.666;16.602;2024-01-15T01:16:55;15.00;54.10
65231;DHT22;51813;40.666;16.602;2024-01-15T01:19:21;15.00;54.20
65231;DHT22;51813;40.666;16.602;2024-01-15T01:21:46;15.00;54.10
65231;DHT22;51813;40.666;16.602;2024-01-15T01:24:12;15.00;54.10
65231;DHT22;51813;40.666;16.602;2024-01-15T01:26:38;15.00;54.20
65231;DHT22;51813;40.666;16.602;2024-01-15T01:29:05;15.00;54.20
65231;DHT22;51813;40.666;16.602;2024-01-15T01:31:30;15.00;54.30
65231;DHT22;51813;40.666;16.602;2024-01-15T01:33:56;15.00;54.30
65231;DHT22;51813;40.666;16.602;2024-01-15T01:36:22;15.00;54.30
65231;DHT22;51813;40.666;16.602;2024-01-15T01:38:48;15.00;54.30
65231;DHT22;51813;40.666;16.602;2024-01-15T01:41:14;15.00;54.30
65231;DHT22;51813;40.666;16.602;2024-01-15T01:43:40;15.00;54.40
65231;DHT22;51813;40.666;16.602;2024-01-15T01:46:06;15.00;54.40
65231;DHT22;51813;40.666;16.602;2024-01-15T01:48:32;15.00;54.10
65231;DHT22;51813;40.666;16.602;2024-01-15T01:51:00;15.10;54.20
65231;DHT22;51813;40.666;16.602;2024-01-15T01:53:27;15.00;54.30
65231;DHT22;51813;40.666;16.602;2024-01-15T01:55:54;15.00;54.40
65231;DHT22;51813;40.666;16.602;2024-01-15T01:58:21;15.00;54.50
65231;DHT22;51813;40.666;16.602;2024-01-15T02:00:47;15.00;54.60
65231;DHT22;51813;40.666;16.602;2024-01-15T02:03:13;15.00;54.50
65231;DHT22;51813;40.666;16.602;2024-01-15T02:05:40;15.00;54.50
65231;DHT22;51813;40.666;16.602;2024-01-15T02:08:06;15.00;54.60
65231;DHT22;51813;40.666;16.602;2024-01-15T02:10:31;15.00;54.60
65231;DHT22;51813;40.666;16.602;2024-01-15T02:12:57;15.00;54.50
65231;DHT22;51813;40.666;16.602;2024-01-15T02:15:23;15.00;54.60
65231;DHT22;51813;40.666;16.602;2024-01-15T02:18:05;15.00;54.50
65231;DHT22;51813;40.666;16.602;2024-01-15T02:20:33;15.00;54.60
65231;DHT22;51813;40.666;16.602;2024-01-15T02:23:09;15.00;54.60
65231;DHT22;51813;40.666;16.602;2024-01-15T02:25:37;15.00;54.60
65231;DHT22;51813;40.666;16.602;2024-01-15T02:28:04;15.10;54.60
65231;DHT22;51813;40.666;16.602;2024-01-15T02:30:30;15.10;54.40
65231;DHT22;51813;40.666;16.602;2024-01-15T02:32:57;15.00;54.50
65231;DHT22;51813;40.666;16.602;2024-01-15T02:35:23;15.10;54.60
65231;DHT22;51813;40.666;16.602;2024-01-15T02:37:49;15.10;54.60
65231;DHT22;51813;40.666;16.602;2024-01-15T02:40:14;15.00;54.60
65231;DHT22;51813;40.666;16.602;2024-01-15T02:42:40;15.00;54.70
65231;DHT22;51813;40.666;16.602;2024-01-15T02:45:06;15.00;54.70
65231;DHT22;51813;40.666;16.602;2024-01-15T02:47:31;15.00;54.70
65231;DHT22;51813;40.666;16.602;2024-01-15T02:49:57;15.00;54.80
65231;DHT22;51813;40.666;16.602;2024-01-15T02:52:23;15.00;54.90
65231;DHT22;51813;40.666;16.602;2024-01-15T02:54:48;15.00;54.90
65231;DHT22;51813;40.666;16.602;2024-01-15T02:57:14;15.00;54.90
65231;DHT22;51813;40.666;16.602;2024-01-15T02:59:40;15.00;55.00
65231;DHT22;51813;40.666;16.602;2024-01-15T03:02:05;15.00;55.00
65231;DHT22;51813;40.666;16.602;2024-01-15T03:04:31;15.00;54.90
65231;DHT22;51813;40.666;16.602;2024-01-15T03:06:57;15.00;54.90
65231;DHT22;51813;40.666;16.602;2024-01-15T03:09:22;15.00;54.90
65231;DHT22;51813;40.666;16.602;2024-01-15T03:11:48;15.10;54.80
65231;DHT22;51813;40.666;16.602;2024-01-15T03:14:14;15.00;54.90
65231;DHT22;51813;40.666;16.602;2024-01-15T03:16:40;15.00;55.10
65231;DHT22;51813;40.666;16.602;2024-01-15T03:19:05;15.00;55.00
65231;DHT22;51813;40.666;16.602;2024-01-15T03:21:31;15.00;55.10
65231;DHT22;51813;40.666;16.602;2024-01-15T03:23:57;15.00;55.20
65231;DHT22;51813;40.666;16.602;2024-01-15T03:26:22;15.00;55.20
65231;DHT22;51813;40.666;16.602;2024-01-15T03:28:48;15.10;55.20
65231;DHT22;51813;40.666;16.602;2024-01-15T03:31:14;15.10;55.20
65231;DHT22;51813;40.666;16.602;2024-01-15T03:33:39;15.10;55.20
65231;DHT22;51813;40.666;16.602;2024-01-15T03:36:05;15.10;55.30
65231;DHT22;51813;40.666;16.602;2024-01-15T03:38:31;15.10;55.30
65231;DHT22;51813;40.666;16.602;2024-01-15T03:40:57;15.10;55.30
65231;DHT22;51813;40.666;16.602;2024-01-15T03:43:23;15.00;55.40
65231;DHT22;51813;40.666;16.602;2024-01-15T03:45:48;15.10;55.40
65231;DHT22;51813;40.666;16.602;2024-01-15T03:48:14;15.10;55.30
65231;DHT22;51813;40.666;16.602;2024-01-15T03:50:39;15.00;55.40
65231;DHT22;51813;40.666;16.602;2024-01-15T03:53:05;15.10;55.40
65231;DHT22;51813;40.666;16.602;2024-01-15T03:55:31;15.10;55.40
65231;DHT22;51813;40.666;16.602;2024-01-15T03:57:57;15.10;55.50
65231;DHT22;51813;40.666;16.602;2024-01-15T04:00:23;15.00;55.50
65231;DHT22;51813;40.666;16.602;2024-01-15T04:02:49;15.10;55.60
65231;DHT22;51813;40.666;16.602;2024-01-15T04:05:14;15.00;55.50
65231;DHT22;51813;40.666;16.602;2024-01-15T04:07:40;15.00;55.70
65231;DHT22;51813;40.666;16.602;2024-01-15T04:10:06;15.00;55.60
65231;DHT22;51813;40.666;16.602;2024-01-15T04:12:31;15.00;55.60
65231;DHT22;51813;40.666;16.602;2024-01-15T04:14:57;15.00;55.70
65231;DHT22;51813;40.666;16.602;2024-01-15T04:17:23;15.00;55.70
65231;DHT22;51813;40.666;16.602;2024-01-15T04:19:49;15.00;55.70
65231;DHT22;51813;40.666;16.602;2024-01-15T04:22:15;15.00;55.70
65231;DHT22;51813;40.666;16.602;2024-01-15T04:24:41;15.00;55.70
65231;DHT22;51813;40.666;16.602;2024-01-15T04:27:07;15.10;55.80
65231;DHT22;51813;40.666;16.602;2024-01-15T04:29:33;15.10;55.80
65231;DHT22;51813;40.666;16.602;2024-01-15T04:31:59;15.10;55.50
65231;DHT22;51813;40.666;16.602;2024-01-15T04:34:24;15.10;55.50
65231;DHT22;51813;40.666;16.602;2024-01-15T04:36:50;15.10;55.70
65231;DHT22;51813;40.666;16.602;2024-01-15T04:39:15;15.10;55.70
65231;DHT22;51813;40.666;16.602;2024-01-15T04:41:41;15.10;56.40
65231;DHT22;51813;40.666;16.602;2024-01-15T04:44:07;15.10;55.90
65231;DHT22;51813;40.666;16.602;2024-01-15T04:46:32;15.10;55.80
65231;DHT22;51813;40.666;16.602;2024-01-15T04:48:58;15.10;55.80
65231;DHT22;51813;40.666;16.602;2024-01-15T04:51:24;15.00;55.90
65231;DHT22;51813;40.666;16.602;2024-01-15T04:53:49;15.00;56.00
65231;DHT22;51813;40.666;16.602;2024-01-15T04:56:15;15.10;55.90
65231;DHT22;51813;40.666;16.602;2024-01-15T04:58:41;15.00;56.00
65231;DHT22;51813;40.666;16.602;2024-01-15T05:01:08;15.00;56.00
65231;DHT22;51813;40.666;16.602;2024-01-15T05:03:33;15.10;56.10
65231;DHT22;51813;40.666;16.602;2024-01-15T05:05:59;15.10;55.90
65231;DHT22;51813;40.666;16.602;2024-01-15T05:08:25;15.00;56.00
65231;DHT22;51813;40.666;16.602;2024-01-15T05:10:50;15.10;56.00
65231;DHT22;51813;40.666;16.602;2024-01-15T05:13:16;15.00;55.90
65231;DHT22;51813;40.666;16.602;2024-01-15T05:15:41;15.10;55.80
65231;DHT22;51813;40.666;16.602;2024-01-15T05:18:07;15.10;56.00
65231;DHT22;51813;40.666;16.602;2024-01-15T05:20:33;15.10;55.90
65231;DHT22;51813;40.666;16.602;2024-01-15T05:22:59;15.10;56.00
65231;DHT22;51813;40.666;16.602;2024-01-15T05:25:24;15.10;56.00
65231;DHT22;51813;40.666;16.602;2024-01-15T05:27:50;15.10;56.10
65231;DHT22;51813;40.666;16.602;2024-01-15T05:30:16;15.10;56.10
65231;DHT22;51813;40.666;16.602;2024-01-15T05:32:42;15.10;56.20
65231;DHT22;51813;40.666;16.602;2024-01-15T05:35:07;15.10;56.20
65231;DHT22;51813;40.666;16.602;2024-01-15T05:37:33;15.10;56.20
65231;DHT22;51813;40.666;16.602;2024-01-15T05:39:59;15.10;56.30
65231;DHT22;51813;40.666;16.602;2024-01-15T05:42:24;15.10;56.30
65231;DHT22;51813;40.666;16.602;2024-01-15T05:44:50;15.10;56.30
65231;DHT22;51813;40.666;16.602;2024-01-15T05:47:15;15.10;56.30
65231;DHT22;51813;40.666;16.602;2024-01-15T05:49:41;15.10;56.30
65231;DHT22;51813;40.666;16.602;2024-01-15T05:52:07;15.10;56.40
65231;DHT22;51813;40.666;16.602;2024-01-15T05:54:32;15.10;56.20
65231;DHT22;51813;40.666;16.602;2024-01-15T05:56:58;15.10;56.20
65231;DHT22;51813;40.666;16.602;2024-01-15T05:59:24;15.10;56.30
65231;DHT22;51813;40.666;16.602;2024-01-15T06:01:50;15.10;56.40
65231;DHT22;51813;40.666;16.602;2024-01-15T06:04:16;15.10;56.40
65231;DHT22;51813;40.666;16.602;2024-01-15T06:06:42;15.10;56.50
65231;DHT22;51813;40.666;16.602;2024-01-15T06:09:07;15.10;56.50
65231;DHT22;51813;40.666;16.602;2024-01-15T06:11:34;15.10;56.40
65231;DHT22;51813;40.666;16.602;2024-01-15T06:14:00;15.10;56.50
65231;DHT22;51813;40.666;16.602;2024-01-15T06:16:26;15.10;56.60
65231;DHT22;51813;40.666;16.602;2024-01-15T06:18:52;15.10;56.60
65231;DHT22;51813;40.666;16.602;2024-01-15T06:21:17;15.10;56.60
65231;DHT22;51813;40.666;16.602;2024-01-15T06:23:44;15.10;56.80
65231;DHT22;51813;40.666;16.602;2024-01-15T06:26:12;15.10;56.60
65231;DHT22;51813;40.666;16.602;2024-01-15T06:28:37;15.10;56.70
65231;DHT22;51813;40.666;16.602;2024-01-15T06:31:03;15.10;56.70
65231;DHT22;51813;40.666;16.602;2024-01-15T06:33:29;15.10;56.60
65231;DHT22;51813;40.666;16.602;2024-01-15T06:35:55;15.10;56.50
65231;DHT22;51813;40.666;16.602;2024-01-15T06:38:21;15.10;56.40
65231;DHT22;51813;40.666;16.602;2024-01-15T06:40:47;15.10;56.50
65231;DHT22;51813;40.666;16.602;2024-01-15T06:43:14;15.20;56.70
65231;DHT22;51813;40.666;16.602;2024-01-15T06:45:40;15.10;56.80
65231;DHT22;51813;40.666;16.602;2024-01-15T06:48:06;15.10;56.80
65231;DHT22;51813;40.666;16.602;2024-01-15T06:50:33;15.10;56.70
65231;DHT22;51813;40.666;16.602;2024-01-15T06:52:59;15.10;56.80
65231;DHT22;51813;40.666;16.602;2024-01-15T06:55:24;15.10;56.90
65231;DHT22;51813;40.666;16.602;2024-01-15T06:57:51;15.10;56.90
65231;DHT22;51813;40.666;16.602;2024-01-15T07:00:17;15.10;56.80
65231;DHT22;51813;40.666;16.602;2024-01-15T07:02:45;15.10;56.90
65231;DHT22;51813;40.666;16.602;2024-01-15T07:05:11;15.10;56.90
65231;DHT22;51813;40.666;16.602;2024-01-15T07:07:36;15.10;56.90
65231;DHT22;51813;40.666;16.602;2024-01-15T07:10:03;15.10;56.80
65231;DHT22;51813;40.666;16.602;2024-01-15T07:12:29;15.10;56.90
65231;DHT22;51813;40.666;16.602;2024-01-15T07:14:56;15.10;56.80
65231;DHT22;51813;40.666;16.602;2024-01-15T07:17:22;15.10;56.70
65231;DHT22;51813;40.666;16.602;2024-01-15T07:19:47;15.20;57.30
65231;DHT22;51813;40.666;16.602;2024-01-15T07:22:13;15.20;56.70
65231;DHT22;51813;40.666;16.602;2024-01-15T07:24:40;15.20;56.80
65231;DHT22;51813;40.666;16.602;2024-01-15T07:27:06;15.10;56.80
65231;DHT22;51813;40.666;16.602;2024-01-15T07:29:31;15.10;56.90
65231;DHT22;51813;40.666;16.602;2024-01-15T07:32:03;15.10;56.80
65231;DHT22;51813;40.666;16.602;2024-01-15T07:34:29;15.10;57.00
65231;DHT22;51813;40.666;16.602;2024-01-15T07:36:54;15.10;57.00
65231;DHT22;51813;40.666;16.602;2024-01-15T07:39:20;15.10;57.00
65231;DHT22;51813;40.666;16.602;2024-01-15T07:41:48;15.10;56.90
65231;DHT22;51813;40.666;16.602;2024-01-15T07:44:13;15.10;57.00
65231;DHT22;51813;40.666;16.602;2024-01-15T07:46:43;15.10;57.00
65231;DHT22;51813;40.666;16.602;2024-01-15T07:49:09;15.10;57.10
65231;DHT22;51813;40.666;16.602;2024-01-15T07:51:35;15.10;57.00
65231;DHT22;51813;40.666;16.602;2024-01-15T07:54:00;15.10;57.10
65231;DHT22;51813;40.666;16.602;2024-01-15T07:56:26;15.10;57.00
65231;DHT22;51813;40.666;16.602;2024-01-15T07:58:53;15.10;56.90
65231;DHT22;51813;40.666;16.602;2024-01-15T08:01:18;15.10;56.90
65231;DHT22;51813;40.666;16.602;2024-01-15T08:03:44;15.10;57.00
65231;DHT22;51813;40.666;16.602;2024-01-15T08:06:10;15.10;57.00
65231;DHT22;51813;40.666;16.602;2024-01-15T08:08:36;15.10;57.10
65231;DHT22;51813;40.666;16.602;2024-01-15T08:11:02;15.10;57.10
65231;DHT22;51813;40.666;16.602;2024-01-15T08:13:28;15.10;57.20
65231;DHT22;51813;40.666;16.602;2024-01-15T08:15:54;15.10;57.30
65231;DHT22;51813;40.666;16.602;2024-01-15T08:18:19;15.10;57.20
65231;DHT22;51813;40.666;16.602;2024-01-15T08:20:47;15.10;57.30
65231;DHT22;51813;40.666;16.602;2024-01-15T08:23:13;15.10;57.30
65231;DHT22;51813;40.666;16.602;2024-01-15T08:25:39;15.10;57.30
65231;DHT22;51813;40.666;16.602;2024-01-15T08:28:04;15.10;57.30
65231;DHT22;51813;40.666;16.602;2024-01-15T08:30:30;15.10;57.30
65231;DHT22;51813;40.666;16.602;2024-01-15T08:32:56;15.10;57.30
65231;DHT22;51813;40.666;16.602;2024-01-15T08:35:22;15.20;57.20
65231;DHT22;51813;40.666;16.602;2024-01-15T08:37:54;15.20;57.00
65231;DHT22;51813;40.666;16.602;2024-01-15T08:40:20;15.20;57.00
65231;DHT22;51813;40.666;16.602;2024-01-15T08:42:46;15.20;57.00
65231;DHT22;51813;40.666;16.602;2024-01-15T08:45:12;15.20;57.10
65231;DHT22;51813;40.666;16.602;2024-01-15T08:47:38;15.20;57.20
65231;DHT22;51813;40.666;16.602;2024-01-15T08:50:04;15.20;57.30
65231;DHT22;51813;40.666;16.602;2024-01-15T08:52:30;15.10;57.20
65231;DHT22;51813;40.666;16.602;2024-01-15T08:54:57;15.10;57.40
65231;DHT22;51813;40.666;16.602;2024-01-15T08:57:22;15.10;57.30
65231;DHT22;51813;40.666;16.602;2024-01-15T08:59:48;15.10;57.30
65231;DHT22;51813;40.666;16.602;2024-01-15T09:02:14;15.20;57.40
65231;DHT22;51813;40.666;16.602;2024-01-15T09:04:41;15.10;57.40
65231;DHT22;51813;40.666;16.602;2024-01-15T09:07:07;15.20;57.40
65231;DHT22;51813;40.666;16.602;2024-01-15T09:09:33;15.10;57.50
65231;DHT22;51813;40.666;16.602;2024-01-15T09:11:59;15.10;57.50
65231;DHT22;51813;40.666;16.602;2024-01-15T09:14:25;15.20;57.50
65231;DHT22;51813;40.666;16.602;2024-01-15T09:16:52;15.20;57.40
65231;DHT22;51813;40.666;16.602;2024-01-15T09:19:18;15.20;57.20
65231;DHT22;51813;40.666;16.602;2024-01-15T09:21:44;15.20;57.10
65231;DHT22;51813;40.666;16.602;2024-01-15T09:24:09;15.20;57.10
65231;DHT22;51813;40.666;16.602;2024-01-15T09:26:35;15.20;57.30
65231;DHT22;51813;40.666;16.602;2024-01-15T09:29:01;15.20;57.30
65231;DHT22;51813;40.666;16.602;2024-01-15T09:31:28;15.20;57.40
65231;DHT22;51813;40.666;16.602;2024-01-15T09:33:54;15.20;57.50
65231;DHT22;51813;40.666;16.602;2024-01-15T09:36:22;15.20;57.50
65231;DHT22;51813;40.666;16.602;2024-01-15T09:38:48;15.20;57.70
65231;DHT22;51813;40.666;16.602;2024-01-15T09:41:14;15.20;57.60
65231;DHT22;51813;40.666;16.602;2024-01-15T09:43:40;15.20;57.60
65231;DHT22;51813;40.666;16.602;2024-01-15T09:46:07;15.20;57.70
65231;DHT22;51813;40.666;16.602;2024-01-15T09:48:33;15.20;57.90
65231;DHT22;51813;40.666;16.602;2024-01-15T09:51:01;15.20;57.90
65231;DHT22;51813;40.666;16.602;2024-01-15T09:53:27;15.20;57.90
65231;DHT22;51813;40.666;16.602;2024-01-15T09:55:53;15.20;57.70
65231;DHT22;51813;40.666;16.602;2024-01-15T09:58:20;15.20;57.60
65231;DHT22;51813;40.666;16.602;2024-01-15T10:00:47;15.20;57.60
65231;DHT22;51813;40.666;16.602;2024-01-15T10:03:15;15.20;57.60
65231;DHT22;51813;40.666;16.602;2024-01-15T10:05:41;15.30;57.60
65231;DHT22;51813;40.666;16.602;2024-01-15T10:08:07;15.30;57.60
65231;DHT22;51813;40.666;16.602;2024-01-15T10:10:33;15.30;57.70
65231;DHT22;51813;40.666;16.602;2024-01-15T10:13:01;15.20;57.70
65231;DHT22;51813;40.666;16.602;2024-01-15T10:15:28;15.20;57.70
65231;DHT22;51813;40.666;16.602;2024-01-15T10:17:54;15.20;57.70
65231;DHT22;51813;40.666;16.602;2024-01-15T10:20:20;15.20;57.90
65231;DHT22;51813;40.666;16.602;2024-01-15T10:22:47;15.20;57.90
65231;DHT22;51813;40.666;16.602;2024-01-15T10:25:14;15.20;57.90
65231;DHT22;51813;40.666;16.602;2024-01-15T10:27:43;15.20;57.90
65231;DHT22;51813;40.666;16.602;2024-01-15T10:30:09;15.20;57.90
65231;DHT22;51813;40.666;16.602;2024-01-15T10:32:37;15.20;58.00
65231;DHT22;51813;40.666;16.602;2024-01-15T10:35:03;15.20;58.00
65231;DHT22;51813;40.666;16.602;2024-01-15T10:37:33;15.20;57.80
65231;DHT22;51813;40.666;16.602;2024-01-15T10:40:02;15.20;57.90
65231;DHT22;51813;40.666;16.602;2024-01-15T10:42:30;15.30;57.70
65231;DHT22;51813;40.666;16.602;2024-01-15T10:44:56;15.30;57.70
65231;DHT22;51813;40.666;16.602;2024-01-15T10:47:22;15.30;57.80
65231;DHT22;51813;40.666;16.602;2024-01-15T10:49:48;15.30;57.80
65231;DHT22;51813;40.666;16.602;2024-01-15T10:52:15;15.30;57.90
65231;DHT22;51813;40.666;16.602;2024-01-15T10:54:42;15.30;57.90
65231;DHT22;51813;40.666;16.602;2024-01-15T10:57:08;15.30;57.90
65231;DHT22;51813;40.666;16.602;2024-01-15T10:59:34;15.30;58.10
65231;DHT22;51813;40.666;16.602;2024-01-15T11:02:01;15.20;58.10
65231;DHT22;51813;40.666;16.602;2024-01-15T11:04:27;15.30;58.10
65231;DHT22;51813;40.666;16.602;2024-01-15T11:06:54;15.30;58.10
65231;DHT22;51813;40.666;16.602;2024-01-15T11:09:21;15.30;58.10
65231;DHT22;51813;40.666;16.602;2024-01-15T11:11:47;15.30;58.30
65231;DHT22;51813;40.666;16.602;2024-01-15T11:14:46;15.30;58.10
65231;DHT22;51813;40.666;16.602;2024-01-15T11:17:13;15.30;58.00
65231;DHT22;51813;40.666;16.602;2024-01-15T11:19:48;15.30;57.90
65231;DHT22;51813;40.666;16.602;2024-01-15T11:25:18;15.30;57.90
65231;DHT22;51813;40.666;16.602;2024-01-15T11:27:45;15.30;58.00
65231;DHT22;51813;40.666;16.602;2024-01-15T11:30:19;15.30;58.10
65231;DHT22;51813;40.666;16.602;2024-01-15T11:32:49;15.30;58.00
65231;DHT22;51813;40.666;16.602;2024-01-15T11:35:14;15.30;58.00
65231;DHT22;51813;40.666;16.602;2024-01-15T11:40:21;15.30;58.20
65231;DHT22;51813;40.666;16.602;2024-01-15T11:42:47;15.30;58.30
65231;DHT22;51813;40.666;16.602;2024-01-15T11:45:18;15.30;58.20
65231;DHT22;51813;40.666;16.602;2024-01-15T11:50:30;15.30;58.30
65231;DHT22;51813;40.666;16.602;2024-01-15T11:53:03;15.30;58.20
65231;DHT22;51813;40.666;16.602;2024-01-15T11:55:38;15.30;58.20
65231;DHT22;51813;40.666;16.602;2024-01-15T11:58:08;15.30;58.00
65231;DHT22;51813;40.666;16.602;2024-01-15T12:00:42;15.30;58.00
65231;DHT22;51813;40.666;16.602;2024-01-15T12:03:09;15.30;58.00
65231;DHT22;51813;40.666;16.602;2024-01-15T12:05:37;15.30;58.00
65231;DHT22;51813;40.666;16.602;2024-01-15T12:08:03;15.30;58.20
65231;DHT22;51813;40.666;16.602;2024-01-15T12:10:39;15.30;58.30
65231;DHT22;51813;40.666;16.602;2024-01-15T12:13:13;15.30;58.20
65231;DHT22;51813;40.666;16.602;2024-01-15T12:15:40;15.30;58.30
65231;DHT22;51813;40.666;16.602;2024-01-15T12:18:08;15.30;58.30
65231;DHT22;51813;40.666;16.602;2024-01-15T12:20:34;15.30;58.30
65231;DHT22;51813;40.666;16.602;2024-01-15T12:23:01;15.30;58.30
65231;DHT22;51813;40.666;16.602;2024-01-15T12:25:29;15.40;58.30
65231;DHT22;51813;40.666;16.602;2024-01-15T12:27:56;15.40;58.30
65231;DHT22;51813;40.666;16.602;2024-01-15T12:30:22;15.40;58.30
65231;DHT22;51813;40.666;16.602;2024-01-15T12:32:48;15.40;58.30
65231;DHT22;51813;40.666;16.602;2024-01-15T12:35:15;15.40;58.30
65231;DHT22;51813;40.666;16.602;2024-01-15T12:37:42;15.40;58.40
65231;DHT22;51813;40.666;16.602;2024-01-15T12:40:09;15.40;58.10
65231;DHT22;51813;40.666;16.602;2024-01-15T12:42:36;15.40;58.50
65231;DHT22;51813;40.666;16.602;2024-01-15T12:45:03;15.50;58.50
65231;DHT22;51813;40.666;16.602;2024-01-15T12:47:30;15.60;58.40
65231;DHT22;51813;40.666;16.602;2024-01-15T12:49:57;15.70;58.30
65231;DHT22;51813;40.666;16.602;2024-01-15T12:52:26;15.80;57.80
65231;DHT22;51813;40.666;16.602;2024-01-15T12:54:52;16.10;57.30
65231;DHT22;51813;40.666;16.602;2024-01-15T12:57:18;16.30;56.80
65231;DHT22;51813;40.666;16.602;2024-01-15T12:59:44;16.50;56.20
65231;DHT22;51813;40.666;16.602;2024-01-15T13:02:11;16.70;55.70
65231;DHT22;51813;40.666;16.602;2024-01-15T13:04:37;16.80;55.30
65231;DHT22;51813;40.666;16.602;2024-01-15T13:07:05;16.90;54.80
65231;DHT22;51813;40.666;16.602;2024-01-15T13:09:30;17.00;54.60
65231;DHT22;51813;40.666;16.602;2024-01-15T13:11:57;17.10;54.40
65231;DHT22;51813;40.666;16.602;2024-01-15T13:14:23;17.20;54.00
65231;DHT22;51813;40.666;16.602;2024-01-15T13:16:48;17.30;53.70
65231;DHT22;51813;40.666;16.602;2024-01-15T13:19:15;17.40;53.50
65231;DHT22;51813;40.666;16.602;2024-01-15T13:21:41;17.50;53.10
65231;DHT22;51813;40.666;16.602;2024-01-15T13:24:07;17.60;53.00
65231;DHT22;51813;40.666;16.602;2024-01-15T13:26:33;17.70;52.90
65231;DHT22;51813;40.666;16.602;2024-01-15T13:29:00;17.70;52.80
65231;DHT22;51813;40.666;16.602;2024-01-15T13:31:30;17.80;52.70
65231;DHT22;51813;40.666;16.602;2024-01-15T13:33:56;17.90;52.50
65231;DHT22;51813;40.666;16.602;2024-01-15T13:36:22;17.90;52.40
65231;DHT22;51813;40.666;16.602;2024-01-15T13:38:52;18.00;52.20
65231;DHT22;51813;40.666;16.602;2024-01-15T13:41:19;18.00;52.20
65231;DHT22;51813;40.666;16.602;2024-01-15T13:43:49;18.00;52.00
65231;DHT22;51813;40.666;16.602;2024-01-15T13:46:15;18.10;52.00
65231;DHT22;51813;40.666;16.602;2024-01-15T13:48:43;18.20;52.00
65231;DHT22;51813;40.666;16.602;2024-01-15T13:51:09;18.20;52.10
65231;DHT22;51813;40.666;16.602;2024-01-15T13:53:35;18.20;52.10
65231;DHT22;51813;40.666;16.602;2024-01-15T13:56:01;18.30;52.20
65231;DHT22;51813;40.666;16.602;2024-01-15T13:58:27;18.30;52.00
65231;DHT22;51813;40.666;16.602;2024-01-15T14:00:52;18.30;52.00
65231;DHT22;51813;40.666;16.602;2024-01-15T14:03:18;18.40;52.00
65231;DHT22;51813;40.666;16.602;2024-01-15T14:05:44;18.40;52.10
65231;DHT22;51813;40.666;16.602;2024-01-15T14:08:10;18.50;51.80
65231;DHT22;51813;40.666;16.602;2024-01-15T14:10:36;18.50;52.00
65231;DHT22;51813;40.666;16.602;2024-01-15T14:13:03;18.50;51.80
65231;DHT22;51813;40.666;16.602;2024-01-15T14:15:29;18.50;51.90
65231;DHT22;51813;40.666;16.602;2024-01-15T14:17:54;18.50;51.60
65231;DHT22;51813;40.666;16.602;2024-01-15T14:20:20;18.60;51.60
65231;DHT22;51813;40.666;16.602;2024-01-15T14:22:46;18.60;51.50
65231;DHT22;51813;40.666;16.602;2024-01-15T14:25:11;18.70;51.50
65231;DHT22;51813;40.666;16.602;2024-01-15T14:27:37;18.60;51.50
65231;DHT22;51813;40.666;16.602;2024-01-15T14:30:03;18.60;51.40
65231;DHT22;51813;40.666;16.602;2024-01-15T14:32:31;18.60;51.50
65231;DHT22;51813;40.666;16.602;2024-01-15T14:34:56;18.60;51.40
65231;DHT22;51813;40.666;16.602;2024-01-15T14:37:22;18.50;51.50
65231;DHT22;51813;40.666;16.602;2024-01-15T14:39:48;18.50;51.70
65231;DHT22;51813;40.666;16.602;2024-01-15T14:42:13;18.40;51.80
65231;DHT22;51813;40.666;16.602;2024-01-15T14:44:39;18.40;52.00
65231;DHT22;51813;40.666;16.602;2024-01-15T14:47:06;18.30;52.00
65231;DHT22;51813;40.666;16.602;2024-01-15T14:49:33;18.30;52.10
65231;DHT22;51813;40.666;16.602;2024-01-15T14:51:59;18.30;52.20
65231;DHT22;51813;40.666;16.602;2024-01-15T14:54:25;18.30;52.20
65231;DHT22;51813;40.666;16.602;2024-01-15T14:56:51;18.20;52.40
65231;DHT22;51813;40.666;16.602;2024-01-15T14:59:17;18.20;52.40
65231;DHT22;51813;40.666;16.602;2024-01-15T15:01:43;18.20;52.40
65231;DHT22;51813;40.666;16.602;2024-01-15T15:04:08;18.00;52.80
65231;DHT22;51813;40.666;16.602;2024-01-15T15:06:36;18.10;53.40
65231;DHT22;51813;40.666;16.602;2024-01-15T15:09:02;18.20;53.20
65231;DHT22;51813;40.666;16.602;2024-01-15T15:11:34;18.30;54.60
65231;DHT22;51813;40.666;16.602;2024-01-15T15:14:00;18.30;54.30
65231;DHT22;51813;40.666;16.602;2024-01-15T15:16:26;18.40;52.90
65231;DHT22;51813;40.666;16.602;2024-01-15T15:18:53;18.50;53.60